createdAt,value
2019-03-06T04:22:52.851Z,17.60
2019-03-06T04:26:52.794Z,15.69
2019-03-06T04:28:52.778Z,18.89
2019-03-06T04:29:52.762Z,17.10
2019-03-06T04:30:52.768Z,19.29
2019-03-06T04:31:52.748Z,14.80
2019-03-06T04:32:52.735Z,17.29
2019-03-06T04:34:52.734Z,17.00
2019-03-06T04:36:52.688Z,17.50
2019-03-06T04:38:52.669Z,15.69
2019-03-06T04:39:52.653Z,18.89
2019-03-06T04:40:52.656Z,19.00
2019-03-06T04:41:52.634Z,18.89
2019-03-06T04:42:52.621Z,18.20
2019-03-06T04:43:52.607Z,16.79
2019-03-06T04:44:52.596Z,18.79
2019-03-06T04:45:52.591Z,18.60
2019-03-06T04:46:52.603Z,19.29
2019-03-06T04:47:52.571Z,16.89
2019-03-06T04:48:52.569Z,19.10
2019-03-06T04:49:53.102Z,19.20
2019-03-06T04:50:52.545Z,19.20
2019-03-06T04:51:52.537Z,20.70
2019-03-06T04:52:52.519Z,19.89
2019-03-06T04:53:52.518Z,19.10
2019-03-06T04:54:52.488Z,19.00
2019-03-06T04:55:52.486Z,17.50
2019-03-06T04:56:52.533Z,19.29
2019-03-06T04:57:52.464Z,19.79
2019-03-06T04:58:52.447Z,18.20
2019-03-06T04:59:52.438Z,24.20
2019-03-06T05:00:52.441Z,22.70
2019-03-06T05:01:52.414Z,19.10
2019-03-06T05:02:52.594Z,24.29
2019-03-06T05:03:52.398Z,19.70
2019-03-06T05:04:52.396Z,18.10
2019-03-06T05:05:52.376Z,21.20
2019-03-06T05:06:52.369Z,20.60
2019-03-06T05:07:52.347Z,19.79
2019-03-06T05:08:52.346Z,22.20
2019-03-06T05:09:52.337Z,25.00
2019-03-06T05:10:52.340Z,20.50
2019-03-06T05:11:52.306Z,23.50
2019-03-06T05:12:52.308Z,22.39
2019-03-06T05:13:52.289Z,21.39
2019-03-06T05:14:52.281Z,24.70
2019-03-06T05:15:52.336Z,19.10
2019-03-06T05:16:52.255Z,26.20
2019-03-06T05:17:52.240Z,20.29
2019-03-06T05:18:52.280Z,24.50
2019-03-06T05:19:52.250Z,22.29
2019-03-06T05:20:52.209Z,24.70
2019-03-06T05:21:52.248Z,22.79
2019-03-06T05:22:52.192Z,25.00
2019-03-06T05:23:52.188Z,24.10
2019-03-06T05:24:52.175Z,23.89
2019-03-06T05:25:52.164Z,23.20
2019-03-06T05:26:52.226Z,22.60
2019-03-06T05:27:52.133Z,23.00
2019-03-06T05:28:52.118Z,22.60
2019-03-06T05:29:52.136Z,23.39
2019-03-06T05:30:52.123Z,20.20
2019-03-06T05:31:52.116Z,19.20
2019-03-06T05:32:52.101Z,20.79
2019-03-06T05:33:52.071Z,21.60
2019-03-06T05:34:52.062Z,21.89
2019-03-06T05:35:52.044Z,22.00
2019-03-06T05:36:52.071Z,22.20
2019-03-06T05:37:52.025Z,21.79
2019-03-06T05:38:52.020Z,22.89
2019-03-06T05:39:52.038Z,21.00
2019-03-06T05:40:51.991Z,20.29
2019-03-06T05:41:51.982Z,21.79
2019-03-06T05:42:51.984Z,23.70
2019-03-06T05:43:51.979Z,22.20
2019-03-06T05:44:51.950Z,19.79
2019-03-06T05:45:51.961Z,22.00
2019-03-06T05:46:51.947Z,21.79
2019-03-06T05:47:51.915Z,21.79
2019-03-06T05:48:51.910Z,21.89
2019-03-06T05:49:51.905Z,17.89
2019-03-06T05:50:51.885Z,21.50
2019-03-06T05:51:51.898Z,17.60
2019-03-06T05:52:51.877Z,19.70
2019-03-06T05:53:51.854Z,21.00
2019-03-06T05:54:51.836Z,22.70
2019-03-06T05:55:51.821Z,21.20
2019-03-06T05:56:51.821Z,18.89
2019-03-06T05:57:51.810Z,23.39
2019-03-06T05:58:51.800Z,19.89
2019-03-06T05:59:51.800Z,19.29
2019-03-06T06:00:51.775Z,20.50
2019-03-06T06:01:51.757Z,20.60
2019-03-06T06:02:51.755Z,19.10
2019-03-06T06:03:51.744Z,19.50
2019-03-06T06:04:51.739Z,18.29
2019-03-06T06:05:51.719Z,19.10
2019-03-06T06:06:51.710Z,20.60
2019-03-06T06:07:51.706Z,16.70
2019-03-06T06:08:51.688Z,17.60
2019-03-06T06:09:51.671Z,18.10
2019-03-06T06:10:51.684Z,16.39
2019-03-06T06:11:51.659Z,18.00
2019-03-06T06:12:51.644Z,15.19
2019-03-06T06:13:51.632Z,15.00
2019-03-06T06:14:51.646Z,17.29
2019-03-06T06:15:51.607Z,16.50
2019-03-06T06:16:51.610Z,17.20
2019-03-06T06:17:51.589Z,16.20
2019-03-06T06:18:51.578Z,14.19
2019-03-06T06:19:51.560Z,18.29
2019-03-06T06:20:51.561Z,13.39
2019-03-06T06:21:51.552Z,13.89
2019-03-06T06:22:51.534Z,13.30
2019-03-06T06:23:51.523Z,13.80
2019-03-06T06:24:51.518Z,13.10
2019-03-06T06:25:51.522Z,14.60
2019-03-06T06:26:51.511Z,13.30
2019-03-06T06:27:51.502Z,12.89
2019-03-06T06:28:51.471Z,14.10
2019-03-06T06:29:51.459Z,13.19
2019-03-06T06:30:51.484Z,12.89
2019-03-06T06:31:51.428Z,12.10
2019-03-06T06:32:51.561Z,13.19
2019-03-06T06:33:51.412Z,14.00
2019-03-06T06:34:51.419Z,12.60
2019-03-06T06:35:51.407Z,13.19
2019-03-06T06:36:51.386Z,10.89
2019-03-06T06:37:51.371Z,12.50
2019-03-06T06:38:51.439Z,13.80
2019-03-06T06:39:51.351Z,10.39
2019-03-06T06:40:51.335Z,12.69
2019-03-06T06:41:51.325Z,9.69
2019-03-06T06:42:51.366Z,9.00
2019-03-06T06:43:51.311Z,12.80
2019-03-06T06:44:51.317Z,9.30
2019-03-06T06:45:51.321Z,12.69
2019-03-06T06:46:51.274Z,10.50
2019-03-06T06:47:51.265Z,10.60
2019-03-06T06:48:51.360Z,10.39
2019-03-06T06:49:51.378Z,10.89
2019-03-06T06:51:00.965Z,9.69
2019-03-06T06:52:16.701Z,10.89
2019-03-06T06:53:16.692Z,10.69
2019-03-06T06:54:16.692Z,15.30
2019-03-06T06:55:16.666Z,10.30
2019-03-06T06:56:16.660Z,10.80
2019-03-06T06:57:16.800Z,9.80
2019-03-06T06:58:16.644Z,10.69
2019-03-06T06:59:16.619Z,9.30
2019-03-06T07:00:16.819Z,10.50
2019-03-06T07:01:16.617Z,10.69
2019-03-06T07:02:16.624Z,9.19
2019-03-06T07:03:16.592Z,7.69
2019-03-06T07:04:16.586Z,9.10
2019-03-06T07:05:16.651Z,11.39
2019-03-06T07:06:16.560Z,9.80
2019-03-06T07:07:16.542Z,8.39
2019-03-06T07:08:16.617Z,8.89
2019-03-06T07:09:16.551Z,7.30
2019-03-06T07:10:16.640Z,9.39
2019-03-06T07:11:16.512Z,10.00
2019-03-06T07:12:16.489Z,7.59
2019-03-06T07:13:16.530Z,11.50
2019-03-06T07:14:16.485Z,9.60
2019-03-06T07:15:16.509Z,8.19
2019-03-06T07:16:16.449Z,11.10
2019-03-06T07:17:16.449Z,8.10
2019-03-06T07:18:16.445Z,7.90
2019-03-06T07:19:16.426Z,8.69
2019-03-06T07:20:16.402Z,6.50
2019-03-06T07:21:16.391Z,9.60
2019-03-06T07:22:16.407Z,11.60
2019-03-06T07:23:16.384Z,7.30
2019-03-06T07:24:16.385Z,7.40
2019-03-06T07:25:16.352Z,6.90
2019-03-06T07:26:16.331Z,8.39
2019-03-06T07:27:16.332Z,10.60
2019-03-06T07:28:16.312Z,7.59
2019-03-06T07:29:16.393Z,6.09
2019-03-06T07:30:16.302Z,8.39
2019-03-06T07:31:16.287Z,6.30
2019-03-06T07:32:16.272Z,8.19
2019-03-06T07:33:16.433Z,7.19
2019-03-06T07:34:16.251Z,9.89
2019-03-06T07:35:16.244Z,5.50
2019-03-06T07:36:16.922Z,6.90
2019-03-06T07:37:16.225Z,6.80
2019-03-06T07:38:16.380Z,7.90
2019-03-06T07:39:16.191Z,5.09
2019-03-06T07:40:16.195Z,7.59
2019-03-06T07:41:16.217Z,5.59
2019-03-06T07:42:16.154Z,6.59
2019-03-06T07:43:16.151Z,4.50
2019-03-06T07:44:16.144Z,7.59
2019-03-06T07:45:16.130Z,5.90
2019-03-06T07:46:16.118Z,6.90
2019-03-06T07:47:16.148Z,5.90
2019-03-06T07:48:16.089Z,6.19
2019-03-06T07:49:16.117Z,7.90
2019-03-06T07:50:16.069Z,6.59
2019-03-06T07:51:16.333Z,5.30
2019-03-06T07:52:16.070Z,7.59
2019-03-06T07:53:16.048Z,6.00
2019-03-06T07:54:16.042Z,5.80
2019-03-06T07:55:16.018Z,6.09
2019-03-06T07:56:16.038Z,7.30
2019-03-06T07:57:15.999Z,6.30
2019-03-06T07:58:16.009Z,4.80
2019-03-06T07:59:15.974Z,3.90
2019-03-06T08:00:33.946Z,6.19
2019-03-06T08:02:05.258Z,5.19
2019-03-06T08:03:05.254Z,3.70
2019-03-06T08:04:05.235Z,4.00
2019-03-06T08:05:05.222Z,6.90
2019-03-06T08:06:05.247Z,5.00
2019-03-06T08:07:05.232Z,5.30
2019-03-06T08:08:05.188Z,4.00
2019-03-06T08:09:05.190Z,4.50
2019-03-06T08:10:05.160Z,3.40
2019-03-06T08:11:05.273Z,4.59
2019-03-06T08:12:09.140Z,3.79
2019-03-06T08:13:05.121Z,4.69
2019-03-06T08:14:05.121Z,4.59
2019-03-06T08:15:05.094Z,4.00
2019-03-06T08:16:05.135Z,4.09
2019-03-06T08:17:05.074Z,4.19
2019-03-06T08:18:05.060Z,4.09
2019-03-06T08:19:05.058Z,4.19
2019-03-06T08:20:05.052Z,4.30
2019-03-06T08:21:05.041Z,5.19
2019-03-06T08:22:05.053Z,5.09
2019-03-06T08:23:05.023Z,4.59
2019-03-06T08:24:04.998Z,3.40
2019-03-06T08:25:04.988Z,3.79
2019-03-06T08:26:05.052Z,4.59
2019-03-06T08:27:05.014Z,4.19
2019-03-06T08:28:04.976Z,3.50
2019-03-06T08:29:04.948Z,4.69
2019-03-06T08:30:04.927Z,5.30
2019-03-06T08:31:12.841Z,5.40
2019-03-06T08:32:30.045Z,6.50
2019-03-06T08:33:30.034Z,3.20
2019-03-06T08:34:30.024Z,3.79
2019-03-06T08:35:30.007Z,2.70
2019-03-06T08:36:29.998Z,4.09
2019-03-06T08:37:29.999Z,2.50
2019-03-06T08:38:29.977Z,4.19
2019-03-06T08:39:29.985Z,2.90
2019-03-06T08:40:29.955Z,2.79
2019-03-06T08:41:29.939Z,4.40
2019-03-06T08:42:29.944Z,5.09
2019-03-06T08:43:29.922Z,4.30
2019-03-06T08:44:29.954Z,2.90
2019-03-06T08:45:29.901Z,2.90
2019-03-06T08:46:30.392Z,3.09
2019-03-06T08:47:30.021Z,2.79
2019-03-06T08:48:29.876Z,4.00
2019-03-06T08:49:29.858Z,2.79
2019-03-06T08:50:29.898Z,3.59
2019-03-06T08:51:29.829Z,3.29
2019-03-06T08:52:29.838Z,4.40
2019-03-06T08:53:29.813Z,3.50
2019-03-06T08:54:29.803Z,3.90
2019-03-06T08:55:29.801Z,3.09
2019-03-06T08:56:29.798Z,3.20
2019-03-06T08:57:29.778Z,3.29
2019-03-06T08:58:29.754Z,4.30
2019-03-06T08:59:29.749Z,4.50
2019-03-06T09:00:30.588Z,4.00
2019-03-06T09:01:29.845Z,2.59
2019-03-06T09:02:29.713Z,4.19
2019-03-06T09:03:29.739Z,5.50
2019-03-06T09:04:29.704Z,3.90
2019-03-06T09:05:31.054Z,4.40
2019-03-06T09:06:29.689Z,3.29
2019-03-06T09:07:29.713Z,5.09
2019-03-06T09:08:29.659Z,3.70
2019-03-06T09:09:29.640Z,3.20
2019-03-06T09:10:29.624Z,4.40
2019-03-06T09:11:29.622Z,2.40
2019-03-06T09:12:29.612Z,5.00
2019-03-06T09:13:29.591Z,3.20
2019-03-06T09:14:29.599Z,4.09
2019-03-06T09:15:32.154Z,2.70
2019-03-06T09:16:29.573Z,5.19
2019-03-06T09:17:29.545Z,2.09
2019-03-06T09:18:29.539Z,3.59
2019-03-06T09:19:29.648Z,3.29
2019-03-06T09:20:37.087Z,2.90
2019-03-06T09:21:54.826Z,3.50
2019-03-06T09:22:54.796Z,4.19
2019-03-06T09:23:54.764Z,2.59
2019-03-06T09:24:54.759Z,3.59
2019-03-06T09:25:54.753Z,2.90
2019-03-06T09:26:54.762Z,6.50
2019-03-06T09:27:54.756Z,4.30
2019-03-06T09:29:01.133Z,4.09
2019-03-06T09:31:11.229Z,3.90
2019-03-06T09:32:23.740Z,3.79
2019-03-06T09:33:23.755Z,4.30
2019-03-06T09:34:23.744Z,4.80
2019-03-06T09:35:23.740Z,4.19
2019-03-06T09:36:23.704Z,4.00
2019-03-06T09:37:23.711Z,3.20
2019-03-06T09:38:23.678Z,4.19
2019-03-06T09:39:23.673Z,2.70
2019-03-06T09:40:23.660Z,3.09
2019-03-06T09:41:23.648Z,3.50
2019-03-06T09:42:23.679Z,2.70
2019-03-06T09:43:23.622Z,3.90
2019-03-06T09:44:23.610Z,4.50
2019-03-06T09:45:23.604Z,3.40
2019-03-06T09:46:23.634Z,4.59
2019-03-06T09:47:23.632Z,4.50
2019-03-06T09:48:23.568Z,4.19
2019-03-06T09:49:23.563Z,3.79
2019-03-06T09:50:23.554Z,3.29
2019-03-06T09:51:23.547Z,4.19
2019-03-06T09:52:23.550Z,4.30
2019-03-06T09:53:23.514Z,4.59
2019-03-06T09:54:23.519Z,2.79
2019-03-06T09:55:23.503Z,4.69
2019-03-06T09:56:23.497Z,3.70
2019-03-06T09:57:23.478Z,3.70
2019-03-06T09:58:23.459Z,4.30
2019-03-06T09:59:23.451Z,2.79
2019-03-06T10:00:24.372Z,3.59
2019-03-06T10:01:23.443Z,3.40
2019-03-06T10:02:23.416Z,3.50
2019-03-06T10:03:23.413Z,2.09
2019-03-06T10:04:23.406Z,3.40
2019-03-06T10:05:23.392Z,4.30
2019-03-06T10:06:23.386Z,5.30
2019-03-06T10:07:23.363Z,6.50
2019-03-06T10:08:24.566Z,3.00
2019-03-06T10:09:23.355Z,2.40
2019-03-06T10:10:23.325Z,3.50
2019-03-06T10:11:23.389Z,3.50
2019-03-06T10:12:23.312Z,4.40
2019-03-06T10:13:23.298Z,3.90
2019-03-06T10:14:23.428Z,3.79
2019-03-06T10:15:23.441Z,5.09
2019-03-06T10:16:23.368Z,4.19
2019-03-06T10:17:23.313Z,3.70
2019-03-06T10:18:23.248Z,4.19
2019-03-06T10:19:23.226Z,4.30
2019-03-06T10:20:25.309Z,2.70
2019-03-06T10:21:23.250Z,4.69
2019-03-06T10:22:24.195Z,5.59
2019-03-06T10:23:23.190Z,4.69
2019-03-06T10:24:23.176Z,5.30
2019-03-06T10:25:29.826Z,4.19
2019-03-06T10:26:48.960Z,3.50
2019-03-06T10:27:48.922Z,5.69
2019-03-06T10:28:48.922Z,5.90
2019-03-06T10:29:48.922Z,2.79
2019-03-06T10:30:48.894Z,3.70
2019-03-06T10:31:48.904Z,3.59
2019-03-06T10:32:48.869Z,5.19
2019-03-06T10:33:48.983Z,5.19
2019-03-06T10:34:48.851Z,2.79
2019-03-06T10:35:48.930Z,3.90
2019-03-06T10:36:48.836Z,5.59
2019-03-06T10:37:48.818Z,2.00
2019-03-06T10:38:48.859Z,3.59
2019-03-06T10:39:48.803Z,5.50
2019-03-06T10:40:48.784Z,2.50
2019-03-06T10:41:48.783Z,4.30
2019-03-06T10:42:48.792Z,3.20
2019-03-06T10:43:49.616Z,4.09
2019-03-06T10:44:49.420Z,3.00
2019-03-06T10:45:48.726Z,2.20
2019-03-06T10:46:48.770Z,4.50
2019-03-06T10:47:48.724Z,3.59
2019-03-06T10:48:48.691Z,3.20
2019-03-06T10:49:48.697Z,3.29
2019-03-06T10:50:48.688Z,3.20
2019-03-06T10:51:48.665Z,3.59
2019-03-06T10:52:48.666Z,4.30
2019-03-06T10:53:48.642Z,3.40
2019-03-06T10:54:48.624Z,3.20
2019-03-06T10:55:48.628Z,3.50
2019-03-06T10:56:48.619Z,6.30
2019-03-06T10:57:48.595Z,4.50
2019-03-06T10:58:48.601Z,2.90
2019-03-06T10:59:48.578Z,3.79
2019-03-06T11:00:49.618Z,3.00
2019-03-06T11:01:49.232Z,2.00
2019-03-06T11:02:48.767Z,3.79
2019-03-06T11:03:48.593Z,4.40
2019-03-06T11:04:48.536Z,4.50
2019-03-06T11:05:48.527Z,3.70
2019-03-06T11:06:48.507Z,4.09
2019-03-06T11:07:48.485Z,4.30
2019-03-06T11:08:48.483Z,2.59
2019-03-06T11:09:48.489Z,3.59
2019-03-06T11:10:48.465Z,2.29
2019-03-06T11:11:48.448Z,2.29
2019-03-06T11:12:48.438Z,2.59
2019-03-06T11:13:48.427Z,4.09
2019-03-06T11:14:48.420Z,2.90
2019-03-06T11:17:02.096Z,4.30
2019-03-06T11:18:13.874Z,3.90
2019-03-06T11:18:56.022Z,4.09
2019-03-06T11:19:13.848Z,3.90
2019-03-06T11:20:13.853Z,2.29
2019-03-06T11:21:13.820Z,2.70
2019-03-06T11:22:13.822Z,2.59
2019-03-06T11:23:13.812Z,3.90
2019-03-06T11:24:13.889Z,4.90
2019-03-06T11:25:13.773Z,3.59
2019-03-06T11:26:13.769Z,2.59
2019-03-06T11:27:14.153Z,1.70
2019-03-06T11:28:13.764Z,4.19
2019-03-06T11:29:13.783Z,5.19
2019-03-06T11:30:13.729Z,1.79
2019-03-06T11:31:17.216Z,3.09
2019-03-06T11:32:13.705Z,4.50
2019-03-06T11:33:13.713Z,4.19
2019-03-06T11:34:13.692Z,2.50
2019-03-06T11:35:13.669Z,3.09
2019-03-06T11:36:13.668Z,1.79
2019-03-06T11:37:13.662Z,4.09
2019-03-06T11:38:13.665Z,2.40
2019-03-06T11:39:13.623Z,2.79
2019-03-06T11:40:13.643Z,3.09
2019-03-06T11:41:13.603Z,2.59
2019-03-06T11:42:13.604Z,3.90
2019-03-06T11:43:13.583Z,3.20
2019-03-06T11:44:13.599Z,3.20
2019-03-06T11:45:16.031Z,2.79
2019-03-06T11:46:13.567Z,4.59
2019-03-06T11:47:13.535Z,3.70
2019-03-06T11:48:13.529Z,3.29
2019-03-06T11:49:13.525Z,3.50
2019-03-06T11:50:13.513Z,3.29
2019-03-06T11:51:13.498Z,3.09
2019-03-06T11:52:13.499Z,1.50
2019-03-06T11:53:13.467Z,3.50
2019-03-06T11:54:13.470Z,2.70
2019-03-06T11:55:13.556Z,2.79
2019-03-06T11:56:13.439Z,3.29
2019-03-06T11:57:13.570Z,5.09
2019-03-06T11:58:13.418Z,3.29
2019-03-06T11:59:13.811Z,3.59
2019-03-06T12:00:13.955Z,3.00
2019-03-06T12:01:13.391Z,3.00
2019-03-06T12:02:13.398Z,3.50
2019-03-06T12:03:13.383Z,2.40
2019-03-06T12:04:13.356Z,3.20
2019-03-06T12:05:13.337Z,2.20
2019-03-06T12:06:13.344Z,3.09
2019-03-06T12:07:13.316Z,2.70
2019-03-06T12:08:13.329Z,2.29
2019-03-06T12:09:13.296Z,3.00
2019-03-06T12:10:13.299Z,4.59
2019-03-06T12:11:13.286Z,2.50
2019-03-06T12:12:13.280Z,2.09
2019-03-06T12:13:13.314Z,2.50
2019-03-06T12:14:13.256Z,3.00
2019-03-06T12:15:13.239Z,3.20
2019-03-06T12:16:13.283Z,4.40
2019-03-06T12:17:21.784Z,3.29
2019-03-06T12:18:14.197Z,2.40
2019-03-06T12:19:13.179Z,4.19
2019-03-06T12:20:13.169Z,2.79
2019-03-06T12:21:13.172Z,5.50
2019-03-06T12:22:13.207Z,4.09
2019-03-06T12:23:13.146Z,3.00
2019-03-06T12:24:13.241Z,5.09
2019-03-06T12:25:13.120Z,1.79
2019-03-06T12:26:13.117Z,3.09
2019-03-06T12:27:13.105Z,2.09
2019-03-06T12:28:13.118Z,3.29
2019-03-06T12:29:13.103Z,2.20
2019-03-06T12:30:13.092Z,1.70
2019-03-06T12:31:13.050Z,2.90
2019-03-06T12:32:13.048Z,3.00
2019-03-06T12:33:13.041Z,2.59
2019-03-06T12:34:13.032Z,3.50
2019-03-06T12:35:13.016Z,3.50
2019-03-06T12:36:12.994Z,1.90
2019-03-06T12:37:12.985Z,1.79
2019-03-06T12:38:13.000Z,2.90
2019-03-06T12:39:12.987Z,4.09
2019-03-06T12:40:14.676Z,4.50
2019-03-06T12:41:12.975Z,3.59
2019-03-06T12:42:14.611Z,2.90
2019-03-06T12:43:12.914Z,1.60
2019-03-06T12:44:12.944Z,6.09
2019-03-06T12:45:28.505Z,3.90
2019-03-06T12:46:22.933Z,3.70
2019-03-06T12:47:13.889Z,2.20
2019-03-06T12:48:12.864Z,3.40
2019-03-06T12:49:12.870Z,2.50
2019-03-06T12:50:12.843Z,3.79
2019-03-06T12:51:12.853Z,2.70
2019-03-06T12:52:12.826Z,3.09
2019-03-06T12:53:13.017Z,2.70
2019-03-06T12:54:12.812Z,2.50
2019-03-06T12:55:12.791Z,2.59
2019-03-06T12:56:12.795Z,3.79
2019-03-06T12:57:12.793Z,3.40
2019-03-06T12:58:12.760Z,5.80
2019-03-06T12:59:13.737Z,2.40
2019-03-06T13:00:20.747Z,2.70
2019-03-06T13:01:13.750Z,3.00
2019-03-06T13:02:12.706Z,3.79
2019-03-06T13:03:12.694Z,2.79
2019-03-06T13:04:12.697Z,2.50
2019-03-06T13:05:12.683Z,3.50
2019-03-06T13:06:12.682Z,2.29
2019-03-06T13:07:12.666Z,2.70
2019-03-06T13:08:19.677Z,2.29
2019-03-06T13:09:13.690Z,6.69
2019-03-06T13:10:12.618Z,3.59
2019-03-06T13:11:12.613Z,2.59
2019-03-06T13:12:12.635Z,6.00
2019-03-06T13:13:13.600Z,3.70
2019-03-06T13:14:12.601Z,3.59
2019-03-06T13:15:16.330Z,4.80
2019-03-06T13:16:12.572Z,3.70
2019-03-06T13:17:12.558Z,2.50
2019-03-06T13:18:12.528Z,3.29
2019-03-06T13:19:12.534Z,3.79
2019-03-06T13:20:12.525Z,4.50
2019-03-06T13:21:12.509Z,4.00
2019-03-06T13:22:12.495Z,3.90
2019-03-06T13:23:12.489Z,2.59
2019-03-06T13:24:12.482Z,5.40
2019-03-06T13:25:12.467Z,2.20
2019-03-06T13:26:12.478Z,4.40
2019-03-06T13:27:12.449Z,3.29
2019-03-06T13:28:12.429Z,1.70
2019-03-06T13:29:12.409Z,2.59
2019-03-06T13:30:12.396Z,3.00
2019-03-06T13:31:12.390Z,3.40
2019-03-06T13:32:12.494Z,3.79
2019-03-06T13:33:13.825Z,4.19
2019-03-06T13:34:12.362Z,3.20
2019-03-06T13:35:12.348Z,4.59
2019-03-06T13:36:12.455Z,5.30
2019-03-06T13:37:12.335Z,4.09
2019-03-06T13:38:12.324Z,4.09
2019-03-06T13:39:12.314Z,3.59
2019-03-06T13:40:18.548Z,3.29
2019-03-06T13:41:13.345Z,4.40
2019-03-06T13:42:12.278Z,3.50
2019-03-06T13:43:12.249Z,3.70
2019-03-06T13:44:12.469Z,2.79
2019-03-06T13:45:22.588Z,2.90
2019-03-06T13:46:13.240Z,2.40
2019-03-06T13:47:12.227Z,5.09
2019-03-06T13:48:12.215Z,3.20
2019-03-06T13:49:12.195Z,4.30
2019-03-06T13:50:13.601Z,3.40
2019-03-06T13:51:12.229Z,5.30
2019-03-06T13:52:12.206Z,2.79
2019-03-06T13:53:20.306Z,3.00
2019-03-06T13:54:13.136Z,3.40
2019-03-06T13:55:12.159Z,4.19
2019-03-06T13:56:12.144Z,3.29
2019-03-06T13:57:12.108Z,2.70
2019-03-06T13:58:12.176Z,4.30
2019-03-06T13:59:12.311Z,4.19
2019-03-06T14:00:12.078Z,4.00
2019-03-06T14:01:14.184Z,3.09
2019-03-06T14:02:12.053Z,3.50
2019-03-06T14:03:12.096Z,3.29
2019-03-06T14:04:12.021Z,4.00
2019-03-06T14:05:12.088Z,4.40
2019-03-06T14:06:12.643Z,4.09
2019-03-06T14:07:12.037Z,2.70
2019-03-06T14:08:11.982Z,2.59
2019-03-06T14:09:12.027Z,2.90
2019-03-06T14:10:11.974Z,3.50
2019-03-06T14:11:11.963Z,4.69
2019-03-06T14:12:11.971Z,4.59
2019-03-06T14:13:11.942Z,5.69
2019-03-06T14:14:11.924Z,4.80
2019-03-06T14:15:23.523Z,3.59
2019-03-06T14:16:12.923Z,4.59
2019-03-06T14:17:11.900Z,5.09
2019-03-06T14:18:11.889Z,4.40
2019-03-06T14:19:11.868Z,2.90
2019-03-06T14:20:11.953Z,2.79
2019-03-06T14:21:11.974Z,3.40
2019-03-06T14:22:11.840Z,5.30
2019-03-06T14:23:11.813Z,4.90
2019-03-06T14:24:11.806Z,5.19
2019-03-06T14:25:11.825Z,3.40
2019-03-06T14:26:11.786Z,4.59
2019-03-06T14:27:11.781Z,7.19
2019-03-06T14:28:11.795Z,5.00
2019-03-06T14:29:11.754Z,4.09
2019-03-06T14:30:11.746Z,2.29
2019-03-06T14:31:11.766Z,5.69
2019-03-06T14:32:14.849Z,3.29
2019-03-06T14:33:11.703Z,4.40
2019-03-06T14:34:11.687Z,4.50
2019-03-06T14:35:11.693Z,3.90
2019-03-06T14:36:11.743Z,4.30
2019-03-06T14:37:11.665Z,4.30
2019-03-06T14:38:11.644Z,4.80
2019-03-06T14:39:11.648Z,6.80
2019-03-06T14:40:11.626Z,4.80
2019-03-06T14:41:11.619Z,4.09
2019-03-06T14:42:11.618Z,4.30
2019-03-06T14:43:11.655Z,5.00
2019-03-06T14:44:11.606Z,4.09
2019-03-06T14:45:25.582Z,5.09
2019-03-06T14:46:16.729Z,4.19
2019-03-06T14:47:11.572Z,7.69
2019-03-06T14:48:11.543Z,3.59
2019-03-06T14:49:11.527Z,8.60
2019-03-06T14:50:11.528Z,5.90
2019-03-06T14:51:11.523Z,3.90
2019-03-06T14:52:11.491Z,5.80
2019-03-06T14:53:11.481Z,8.10
2019-03-06T14:54:11.486Z,4.80
2019-03-06T14:55:11.476Z,6.90
2019-03-06T14:56:11.451Z,7.40
2019-03-06T14:57:11.440Z,5.40
2019-03-06T14:58:11.426Z,4.80
2019-03-06T14:59:11.428Z,6.19
2019-03-06T15:00:19.097Z,5.19
2019-03-06T15:01:12.397Z,3.79
2019-03-06T15:02:11.397Z,4.09
2019-03-06T15:03:11.383Z,5.90
2019-03-06T15:04:11.368Z,4.30
2019-03-06T15:05:11.412Z,3.90
2019-03-06T15:06:12.726Z,4.40
2019-03-06T15:07:11.358Z,3.00
2019-03-06T15:08:11.338Z,3.40
2019-03-06T15:09:11.301Z,2.59
2019-03-06T15:10:11.295Z,4.50
2019-03-06T15:11:11.283Z,4.50
2019-03-06T15:12:11.277Z,4.50
2019-03-06T15:13:11.258Z,4.90
2019-03-06T15:14:11.260Z,3.70
2019-03-06T15:15:16.620Z,6.09
2019-03-06T15:16:11.222Z,6.09
2019-03-06T15:17:11.222Z,4.19
2019-03-06T15:18:11.216Z,5.80
2019-03-06T15:19:11.202Z,4.00
2019-03-06T15:20:11.187Z,3.09
2019-03-06T15:21:11.165Z,4.19
2019-03-06T15:22:11.159Z,5.00
2019-03-06T15:23:11.167Z,4.90
2019-03-06T15:24:11.202Z,3.09
2019-03-06T15:25:11.141Z,3.79
2019-03-06T15:26:11.254Z,5.59
2019-03-06T15:27:11.103Z,3.20
2019-03-06T15:28:11.186Z,3.20
2019-03-06T15:29:11.085Z,4.09
2019-03-06T15:30:14.097Z,6.19
2019-03-06T15:31:11.127Z,4.90
2019-03-06T15:32:11.066Z,5.09
2019-03-06T15:33:12.145Z,3.29
2019-03-06T15:34:11.034Z,3.90
2019-03-06T15:35:11.085Z,4.50
2019-03-06T15:36:11.020Z,3.40
2019-03-06T15:37:11.003Z,4.30
2019-03-06T15:38:10.983Z,4.00
2019-03-06T15:39:10.978Z,4.30
2019-03-06T15:40:10.965Z,3.79
2019-03-06T15:41:10.951Z,2.09
2019-03-06T15:42:10.995Z,4.69
2019-03-06T15:43:10.939Z,4.00
2019-03-06T15:44:10.912Z,3.40
2019-03-06T15:45:13.250Z,4.30
2019-03-06T15:46:10.892Z,6.09
2019-03-06T15:47:10.895Z,4.30
2019-03-06T15:48:10.865Z,3.50
2019-03-06T15:49:10.872Z,4.19
2019-03-06T15:50:10.867Z,3.50
2019-03-06T15:51:10.841Z,3.40
2019-03-06T15:52:10.840Z,4.80
2019-03-06T15:53:10.823Z,3.00
2019-03-06T15:54:10.802Z,4.50
2019-03-06T15:55:10.838Z,3.70
2019-03-06T15:56:10.804Z,5.19
2019-03-06T15:57:10.816Z,4.69
2019-03-06T15:58:10.782Z,4.50
2019-03-06T15:59:14.942Z,3.59
2019-03-06T16:00:12.326Z,4.90
2019-03-06T16:01:10.782Z,4.19
2019-03-06T16:02:10.719Z,3.40
2019-03-06T16:03:10.723Z,2.59
2019-03-06T16:04:10.700Z,7.00
2019-03-06T16:05:10.693Z,4.30
2019-03-06T16:06:19.915Z,3.40
2019-03-06T16:07:11.664Z,2.50
2019-03-06T16:08:10.669Z,2.70
2019-03-06T16:09:10.639Z,2.50
2019-03-06T16:10:10.629Z,4.59
2019-03-06T16:11:10.617Z,4.59
2019-03-06T16:12:12.237Z,3.90
2019-03-06T16:13:10.598Z,3.79
2019-03-06T16:14:10.592Z,4.90
2019-03-06T16:15:13.207Z,3.09
2019-03-06T16:16:10.586Z,6.50
2019-03-06T16:17:10.545Z,3.59
2019-03-06T16:18:10.583Z,2.70
2019-03-06T16:19:10.539Z,4.50
2019-03-06T16:20:10.547Z,4.59
2019-03-06T16:21:10.502Z,4.40
2019-03-06T16:22:10.510Z,5.09
2019-03-06T16:23:10.483Z,5.09
2019-03-06T16:24:10.473Z,3.00
2019-03-06T16:25:10.548Z,3.59
2019-03-06T16:26:10.509Z,4.09
2019-03-06T16:27:10.439Z,3.50
2019-03-06T16:28:10.429Z,3.79
2019-03-06T16:29:10.427Z,3.00
2019-03-06T16:30:10.431Z,3.50
2019-03-06T16:31:10.429Z,3.79
2019-03-06T16:32:10.384Z,6.19
2019-03-06T16:33:10.374Z,3.90
2019-03-06T16:34:10.390Z,3.29
2019-03-06T16:35:10.357Z,5.19
2019-03-06T16:36:10.354Z,4.59
2019-03-06T16:37:10.342Z,4.00
2019-03-06T16:38:10.321Z,4.09
2019-03-06T16:39:10.302Z,3.90
2019-03-06T16:40:10.291Z,5.00
2019-03-06T16:41:10.296Z,3.90
2019-03-06T16:42:10.269Z,4.19
2019-03-06T16:43:10.262Z,4.00
2019-03-06T16:44:10.303Z,4.69
2019-03-06T16:45:19.470Z,4.19
2019-03-06T16:46:11.251Z,6.69
2019-03-06T16:47:10.285Z,6.69
2019-03-06T16:48:10.203Z,2.90
2019-03-06T16:49:10.248Z,4.40
2019-03-06T16:50:14.291Z,3.00
2019-03-06T16:51:10.165Z,4.09
2019-03-06T16:52:10.196Z,3.79
2019-03-06T16:53:10.150Z,5.69
2019-03-06T16:54:10.224Z,4.30
2019-03-06T16:55:10.207Z,4.30
2019-03-06T16:56:10.123Z,5.19
2019-03-06T16:57:10.155Z,4.40
2019-03-06T16:58:10.107Z,4.19
2019-03-06T16:59:10.079Z,5.19
2019-03-06T17:00:18.630Z,4.59
2019-03-06T17:01:11.085Z,3.79
2019-03-06T17:02:10.056Z,5.59
2019-03-06T17:03:10.051Z,2.79
2019-03-06T17:04:10.049Z,3.40
2019-03-06T17:05:10.015Z,4.19
2019-03-06T17:06:10.019Z,3.79
2019-03-06T17:07:09.983Z,7.80
2019-03-06T17:08:09.978Z,4.09
2019-03-06T17:09:09.973Z,3.70
2019-03-06T17:10:09.973Z,2.20
2019-03-06T17:11:09.951Z,5.30
2019-03-06T17:12:09.935Z,3.20
2019-03-06T17:13:09.922Z,6.59
2019-03-06T17:14:09.927Z,4.90
2019-03-06T17:15:13.262Z,3.79
2019-03-06T17:16:10.058Z,3.79
2019-03-06T17:17:09.914Z,5.69
2019-03-06T17:18:09.867Z,4.19
2019-03-06T17:19:09.857Z,4.90
2019-03-06T17:20:09.849Z,2.90
2019-03-06T17:21:09.836Z,3.90
2019-03-06T17:22:09.836Z,3.50
2019-03-06T17:23:09.863Z,3.70
2019-03-06T17:24:09.809Z,5.00
2019-03-06T17:25:09.799Z,5.19
2019-03-06T17:26:09.826Z,4.30
2019-03-06T17:27:09.767Z,6.69
2019-03-06T17:28:09.765Z,4.19
2019-03-06T17:29:09.754Z,3.90
2019-03-06T17:30:14.241Z,4.69
2019-03-06T17:31:09.735Z,5.80
2019-03-06T17:32:09.725Z,4.00
2019-03-06T17:33:09.801Z,4.30
2019-03-06T17:34:09.692Z,3.20
2019-03-06T17:35:09.694Z,2.09
2019-03-06T17:36:09.681Z,6.40
2019-03-06T17:37:09.670Z,3.59
2019-03-06T17:38:09.650Z,6.19
2019-03-06T17:39:09.638Z,4.69
2019-03-06T17:40:09.631Z,4.09
2019-03-06T17:41:09.668Z,5.50
2019-03-06T17:42:09.640Z,4.19
2019-03-06T17:43:09.611Z,4.09
2019-03-06T17:44:11.119Z,3.79
2019-03-06T17:45:11.617Z,5.30
2019-03-06T17:46:09.566Z,5.19
2019-03-06T17:47:09.556Z,3.29